createdAt,value
2017-10-14T00:04:48.981Z,19.30
2017-10-14T00:09:51.913Z,19.39
2017-10-14T00:14:54.982Z,19.41
2017-10-14T00:19:58.236Z,19.41
2017-10-14T00:25:01.258Z,19.44
2017-10-14T00:30:04.232Z,19.47
2017-10-14T00:35:07.461Z,19.52
2017-10-14T00:40:11.345Z,19.51
2017-10-14T00:45:14.439Z,19.49
2017-10-14T00:50:18.095Z,19.45
2017-10-14T00:55:22.046Z,19.43
2017-10-14T01:00:25.648Z,19.40
2017-10-14T01:05:28.796Z,19.50
2017-10-14T01:10:32.749Z,19.52
2017-10-14T01:15:35.904Z,19.50
2017-10-14T01:20:39.268Z,19.58
2017-10-14T01:25:42.509Z,19.59
2017-10-14T01:30:45.625Z,19.51
2017-10-14T01:35:48.925Z,19.51
2017-10-14T01:40:52.736Z,19.46
2017-10-14T01:45:55.837Z,19.32
2017-10-14T01:50:59.075Z,19.46
2017-10-14T01:56:02.446Z,19.37
2017-10-14T02:01:05.308Z,19.31
2017-10-14T02:06:08.893Z,19.23
2017-10-14T02:11:11.911Z,19.15
2017-10-14T02:16:19.794Z,19.05
2017-10-14T02:21:25.716Z,18.87
2017-10-14T02:26:33.031Z,18.77
2017-10-14T02:31:37.556Z,18.63
2017-10-14T02:36:40.804Z,18.47
2017-10-14T02:41:47.095Z,18.49
2017-10-14T02:46:52.361Z,18.45
2017-10-14T02:51:57.837Z,18.40
2017-10-14T02:57:05.473Z,18.51
2017-10-14T03:02:08.863Z,18.40
2017-10-14T03:07:12.721Z,18.58
2017-10-14T03:12:15.624Z,18.67
2017-10-14T03:17:20.372Z,18.80
2017-10-14T03:22:26.360Z,18.90
2017-10-14T03:27:32.327Z,18.95
2017-10-14T03:32:39.196Z,18.94
2017-10-14T03:37:43.825Z,19.04
2017-10-14T03:42:48.147Z,18.94
2017-10-14T03:47:57.076Z,19.05
2017-10-14T03:53:05.407Z,19.10
2017-10-14T03:58:09.036Z,18.98
2017-10-14T04:03:14.172Z,19.01
2017-10-14T04:08:16.936Z,19.01
2017-10-14T04:13:23.280Z,19.01
2017-10-14T04:18:27.933Z,19.12
2017-10-14T04:23:33.262Z,19.10
2017-10-14T04:28:36.461Z,19.14
2017-10-14T04:33:39.685Z,19.15
2017-10-14T04:38:46.978Z,18.86
2017-10-14T04:43:59.122Z,18.70
2017-10-14T04:49:04.568Z,18.47
2017-10-14T04:54:09.159Z,18.34
2017-10-14T04:59:23.082Z,18.32
2017-10-14T05:04:26.124Z,18.19
2017-10-14T05:09:33.893Z,18.06
2017-10-14T05:14:37.553Z,18.06
2017-10-14T05:19:42.613Z,18.04
2017-10-14T05:24:44.903Z,18.01
2017-10-14T05:29:50.200Z,18.02
2017-10-14T05:34:52.174Z,18.06
2017-10-14T05:39:54.064Z,18.04
2017-10-14T05:44:55.983Z,17.96
2017-10-14T05:49:57.904Z,18.10
2017-10-14T05:55:00.529Z,18.11
2017-10-14T06:00:06.977Z,18.08
2017-10-14T06:05:09.064Z,18.11
2017-10-14T06:10:10.991Z,18.04
2017-10-14T06:15:13.550Z,18.02
2017-10-14T06:20:15.496Z,18.08
2017-10-14T06:25:17.416Z,18.05
2017-10-14T06:30:20.606Z,18.07
2017-10-14T06:35:25.588Z,17.94
2017-10-14T06:40:28.936Z,17.97
2017-10-14T06:45:32.027Z,18.06
2017-10-14T06:50:36.635Z,18.09
2017-10-14T06:55:41.386Z,18.19
2017-10-14T07:00:44.372Z,18.19
2017-10-14T07:05:46.306Z,18.21
2017-10-14T07:10:48.964Z,18.39
2017-10-14T07:15:50.876Z,18.36
2017-10-14T07:20:52.800Z,18.47
2017-10-14T07:25:55.464Z,18.54
2017-10-14T07:30:58.086Z,18.66
2017-10-14T07:35:59.973Z,18.68
2017-10-14T07:41:02.672Z,18.82
2017-10-14T07:46:04.595Z,18.89
2017-10-14T07:51:07.345Z,19.14
2017-10-14T07:56:09.310Z,19.22
2017-10-14T08:01:11.999Z,19.34
2017-10-14T08:06:13.920Z,19.40
2017-10-14T08:11:16.648Z,19.37
2017-10-14T08:16:18.547Z,19.46
2017-10-14T08:21:20.442Z,19.68
2017-10-14T08:26:22.349Z,19.74
2017-10-14T08:31:24.386Z,19.82
2017-10-14T08:36:27.404Z,19.92
2017-10-14T08:41:30.860Z,20.03
2017-10-14T08:46:32.811Z,20.20
2017-10-14T08:51:34.856Z,20.21
2017-10-14T08:56:40.824Z,20.32
2017-10-14T09:01:43.116Z,20.44
2017-10-14T09:06:45.152Z,20.57
2017-10-14T09:11:47.291Z,20.59
2017-10-14T09:16:50.061Z,20.63
2017-10-14T09:21:52.063Z,20.67
2017-10-14T09:27:00.498Z,20.72
2017-10-14T09:32:02.689Z,20.69
2017-10-14T09:37:04.793Z,20.86
2017-10-14T09:42:07.537Z,21.05
2017-10-14T09:47:11.575Z,21.19
2017-10-14T09:52:14.602Z,21.32
2017-10-14T09:57:18.579Z,21.42
2017-10-14T10:02:20.647Z,21.57
2017-10-14T10:07:27.052Z,21.55
2017-10-14T10:12:35.254Z,21.75
2017-10-14T10:17:37.565Z,21.83
2017-10-14T10:22:39.565Z,21.87
2017-10-14T10:27:44.030Z,21.95
2017-10-14T10:32:46.406Z,22.13
2017-10-14T10:37:49.131Z,22.19
2017-10-14T10:42:51.836Z,22.35
2017-10-14T10:47:53.759Z,22.40
2017-10-14T10:52:55.778Z,22.58
2017-10-14T10:57:58.726Z,22.70
2017-10-14T11:03:01.745Z,22.79
2017-10-14T11:13:13.168Z,23.02
2017-10-14T11:18:15.590Z,22.96
2017-10-14T11:23:17.675Z,23.13
2017-10-14T11:28:19.619Z,23.22
2017-10-14T11:33:22.371Z,23.28
2017-10-14T11:38:25.521Z,23.32
2017-10-14T11:43:27.795Z,23.44
2017-10-14T11:48:32.836Z,23.53
2017-10-14T11:53:38.064Z,23.66
2017-10-14T11:58:40.013Z,23.84
2017-10-14T12:03:42.949Z,23.80
2017-10-14T12:08:45.427Z,24.02
2017-10-14T12:13:47.487Z,24.03
2017-10-14T12:18:49.967Z,23.90
2017-10-14T12:23:51.851Z,23.94
2017-10-14T12:28:53.756Z,23.85
2017-10-14T12:33:55.671Z,23.83
2017-10-14T12:38:57.683Z,23.87
2017-10-14T12:43:59.728Z,24.06
2017-10-14T12:49:01.669Z,24.12
2017-10-14T12:54:03.627Z,24.09
2017-10-14T12:59:05.520Z,24.14
2017-10-14T13:04:07.409Z,24.06
2017-10-14T13:09:15.769Z,23.97
2017-10-14T13:14:17.710Z,24.05
2017-10-14T13:19:20.432Z,24.13
2017-10-14T13:24:23.261Z,24.30
2017-10-14T13:29:25.928Z,24.37
2017-10-14T13:34:28.467Z,24.43
2017-10-14T13:39:30.550Z,24.32
2017-10-14T13:44:35.017Z,24.25
2017-10-14T13:49:41.085Z,24.34
2017-10-14T13:54:43.037Z,24.37
2017-10-14T13:59:45.911Z,24.23
2017-10-14T14:04:48.543Z,24.20
2017-10-14T14:09:50.509Z,24.17
2017-10-14T14:14:52.509Z,24.17
2017-10-14T14:19:58.966Z,24.33
2017-10-14T14:25:01.835Z,24.16
2017-10-14T14:30:04.674Z,24.29
2017-10-14T14:35:08.903Z,24.17
2017-10-14T14:40:13.259Z,24.23
2017-10-14T14:45:15.282Z,24.16
2017-10-14T14:50:24.042Z,24.03
2017-10-14T14:55:26.495Z,23.97
2017-10-14T15:00:35.053Z,23.95
2017-10-14T15:05:40.101Z,23.85
2017-10-14T15:15:51.559Z,24.32
2017-10-14T15:20:56.466Z,24.07
2017-10-14T15:25:58.739Z,23.85
2017-10-14T15:31:01.785Z,23.79
2017-10-14T15:36:04.281Z,23.86
2017-10-14T15:41:06.302Z,23.87
2017-10-14T15:46:08.278Z,23.92
2017-10-14T15:51:10.259Z,23.82
2017-10-14T15:56:13.882Z,23.67
2017-10-14T16:01:16.670Z,23.44
2017-10-14T16:06:19.171Z,23.14
2017-10-14T16:11:22.581Z,23.03
2017-10-14T16:16:26.788Z,22.97
2017-10-14T16:21:29.269Z,22.88
2017-10-14T16:31:47.144Z,22.33
2017-10-14T16:36:54.676Z,22.14
2017-10-14T16:42:13.749Z,22.13
2017-10-14T16:47:23.051Z,21.97
2017-10-14T16:52:26.359Z,21.87
2017-10-14T16:57:32.528Z,21.79
2017-10-14T17:02:40.855Z,21.63
2017-10-14T17:07:44.501Z,21.62
2017-10-14T17:12:53.662Z,21.51
2017-10-14T17:17:56.572Z,21.43
2017-10-14T17:23:02.134Z,21.35
2017-10-14T17:28:04.896Z,21.28
2017-10-14T17:33:08.377Z,21.20
2017-10-14T17:38:19.463Z,21.11
2017-10-14T17:43:38.406Z,21.03
2017-10-14T17:48:42.414Z,20.96
2017-10-14T17:53:47.485Z,20.90
2017-10-14T17:58:51.293Z,20.84
2017-10-14T18:03:54.548Z,20.75
2017-10-14T18:08:57.029Z,20.67
2017-10-14T18:14:07.099Z,20.61
2017-10-14T18:19:09.409Z,20.48
2017-10-14T18:24:12.594Z,20.39
2017-10-14T18:29:15.888Z,20.33
2017-10-14T18:34:19.827Z,20.24
2017-10-14T18:39:24.600Z,20.24
2017-10-14T18:44:28.892Z,20.16
2017-10-14T18:49:31.704Z,20.09
2017-10-14T18:54:35.664Z,20.07
2017-10-14T18:59:43.446Z,19.99
2017-10-14T19:04:51.945Z,19.90
2017-10-14T19:10:04.566Z,19.75
2017-10-14T19:15:07.284Z,19.63
2017-10-14T19:20:10.336Z,19.68
2017-10-14T19:25:15.075Z,19.70
2017-10-14T19:30:17.981Z,19.66
2017-10-14T19:35:20.944Z,19.61
2017-10-14T19:40:24.413Z,19.52
2017-10-14T19:45:27.606Z,19.54
2017-10-14T19:50:30.576Z,19.51
2017-10-14T19:55:34.112Z,19.52
2017-10-14T20:00:40.586Z,19.51
2017-10-14T20:05:43.340Z,19.51
2017-10-14T20:10:47.256Z,19.54
2017-10-14T20:15:50.357Z,19.54
2017-10-14T20:20:53.307Z,19.52
2017-10-14T20:25:56.476Z,19.46
2017-10-14T20:30:59.633Z,19.31
2017-10-14T20:36:02.543Z,19.24
2017-10-14T20:41:06.042Z,19.20
2017-10-14T20:46:08.896Z,19.13
2017-10-14T20:51:11.647Z,19.12
2017-10-14T20:56:15.655Z,19.24
2017-10-14T21:01:22.097Z,19.43
2017-10-14T21:06:28.061Z,19.58
2017-10-14T21:11:30.967Z,19.66
2017-10-14T21:16:33.816Z,19.66
2017-10-14T21:21:38.172Z,19.72
2017-10-14T21:26:42.179Z,19.77
2017-10-14T21:31:47.085Z,19.71
2017-10-14T21:36:51.725Z,19.53
2017-10-14T21:41:55.029Z,19.38
2017-10-14T21:46:58.537Z,19.28
2017-10-14T21:52:01.393Z,19.09
2017-10-14T21:57:05.101Z,18.85
2017-10-14T22:02:10.814Z,18.72
2017-10-14T22:07:14.599Z,18.65
2017-10-14T22:12:19.185Z,18.65
2017-10-14T22:17:23.131Z,18.66
2017-10-14T22:22:26.063Z,18.63
2017-10-14T22:27:31.284Z,18.58
2017-10-14T22:32:34.135Z,18.46
2017-10-14T22:37:37.089Z,18.35
2017-10-14T22:42:40.501Z,18.31
2017-10-14T22:47:43.474Z,18.26
2017-10-14T22:52:46.516Z,18.21
2017-10-14T22:57:57.162Z,18.20
2017-10-14T23:03:01.368Z,18.22
2017-10-14T23:08:05.510Z,18.16
2017-10-14T23:13:08.308Z,18.14
2017-10-14T23:18:11.317Z,18.06
2017-10-14T23:23:15.263Z,18.02
2017-10-14T23:28:19.112Z,18.02
2017-10-14T23:33:22.968Z,18.04
2017-10-14T23:38:26.714Z,18.02
2017-10-14T23:43:29.629Z,17.93
2017-10-14T23:48:32.530Z,17.74
2017-10-14T23:53:35.502Z,17.49
2017-10-14T23:58:39.037Z,17.31
